sensor_id;sensor_type;location;lat;lon;timestamp;pressure;altitude;pressure_sealevel;temperature;humidity
43745;BME280;29359;53.048;8.732;2023-04-01T00:00:08;99477.28;;;10.08;96.59
43745;BME280;29359;53.048;8.732;2023-04-01T00:02:10;99470.28;;;10.07;96.01
43745;BME280;29359;53.048;8.732;2023-04-01T00:04:12;99476.41;;;10.07;96.57
43745;BME280;29359;53.048;8.732;2023-04-01T00:06:16;99472.84;;;10.08;96.56
43745;BME280;29359;53.048;8.732;2023-04-01T00:08:18;99471.06;;;10.09;97.21
43745;BME280;29359;53.048;8.732;2023-04-01T00:10:20;99473.72;;;10.09;96.93
43745;BME280;29359;53.048;8.732;2023-04-01T00:12:21;99477.13;;;10.11;97.06
43745;BME280;29359;53.048;8.732;2023-04-01T00:14:23;99472.72;;;10.12;96.88
43745;BME280;29359;53.048;8.732;2023-04-01T00:16:24;99470.16;;;10.10;96.46
43745;BME280;29359;53.048;8.732;2023-04-01T00:18:27;99470.16;;;10.10;96.70
43745;BME280;29359;53.048;8.732;2023-04-01T00:20:29;99470.16;;;10.10;97.13
43745;BME280;29359;53.048;8.732;2023-04-01T00:22:30;99470.16;;;10.10;96.85
43745;BME280;29359;53.048;8.732;2023-04-01T00:24:32;99476.28;;;10.11;96.50
43745;BME280;29359;53.048;8.732;2023-04-01T00:26:34;99470.94;;;10.12;97.02
43745;BME280;29359;53.048;8.732;2023-04-01T00:28:36;99471.06;;;10.09;97.54
43745;BME280;29359;53.048;8.732;2023-04-01T00:30:38;99471.06;;;10.09;97.28
43745;BME280;29359;53.048;8.732;2023-04-01T00:32:39;99468.50;;;10.07;97.03
43745;BME280;29359;53.048;8.732;2023-04-01T00:34:41;99472.00;;;10.08;97.45
43745;BME280;29359;53.048;8.732;2023-04-01T00:36:43;99468.50;;;10.07;97.72
43745;BME280;29359;53.048;8.732;2023-04-01T00:38:44;99467.59;;;10.08;97.52
43745;BME280;29359;53.048;8.732;2023-04-01T00:40:47;99460.59;;;10.07;97.82
43745;BME280;29359;53.048;8.732;2023-04-01T00:42:48;99468.50;;;10.07;97.78
43745;BME280;29359;53.048;8.732;2023-04-01T00:44:52;99466.81;;;10.06;98.16
43745;BME280;29359;53.048;8.732;2023-04-01T00:46:54;99468.59;;;10.06;97.82
43745;BME280;29359;53.048;8.732;2023-04-01T00:48:56;99468.59;;;10.06;98.46
43745;BME280;29359;53.048;8.732;2023-04-01T00:51:01;99465.94;;;10.06;98.52
43745;BME280;29359;53.048;8.732;2023-04-01T00:53:05;99463.31;;;10.06;98.04
43745;BME280;29359;53.048;8.732;2023-04-01T00:55:07;99468.59;;;10.06;97.94
43745;BME280;29359;53.048;8.732;2023-04-01T00:57:15;99473.84;;;10.06;98.87
43745;BME280;29359;53.048;8.732;2023-04-01T00:59:19;99466.09;;;10.03;98.18
43745;BME280;29359;53.048;8.732;2023-04-01T01:01:23;99474.00;;;10.03;98.13
43745;BME280;29359;53.048;8.732;2023-04-01T01:03:26;99469.59;;;10.03;98.39
43745;BME280;29359;53.048;8.732;2023-04-01T01:05:43;99471.28;;;10.04;98.22
43745;BME280;29359;53.048;8.732;2023-04-01T01:08:03;99474.00;;;10.03;97.78
43745;BME280;29359;53.048;8.732;2023-04-01T01:10:17;99475.72;;;10.04;97.60
43745;BME280;29359;53.048;8.732;2023-04-01T01:17:17;99469.66;;;10.02;97.67
43745;BME280;29359;53.048;8.732;2023-04-01T01:22:04;99473.16;;;10.02;97.96
43745;BME280;29359;53.048;8.732;2023-04-01T01:24:38;99471.44;;;10.01;98.23
43745;BME280;29359;53.048;8.732;2023-04-01T01:27:04;99470.59;;;10.01;97.39
43745;BME280;29359;53.048;8.732;2023-04-01T01:31:37;99474.16;;;10.00;97.22
43745;BME280;29359;53.048;8.732;2023-04-01T01:36:02;99468.03;;;9.99;97.04
43745;BME280;29359;53.048;8.732;2023-04-01T01:38:09;99475.00;;;10.00;97.06
43745;BME280;29359;53.048;8.732;2023-04-01T01:40:14;99470.66;;;9.99;97.15
43745;BME280;29359;53.048;8.732;2023-04-01T01:42:18;99464.53;;;9.99;97.15
43745;BME280;29359;53.048;8.732;2023-04-01T01:44:21;99473.31;;;9.99;97.11
43745;BME280;29359;53.048;8.732;2023-04-01T01:46:25;99470.66;;;9.99;97.97
43745;BME280;29359;53.048;8.732;2023-04-01T01:48:29;99467.16;;;9.99;97.52
43745;BME280;29359;53.048;8.732;2023-04-01T01:50:33;99473.31;;;9.99;97.76
43745;BME280;29359;53.048;8.732;2023-04-01T01:52:35;99477.72;;;9.99;98.21
43745;BME280;29359;53.048;8.732;2023-04-01T01:54:46;99472.44;;;9.99;97.39
43745;BME280;29359;53.048;8.732;2023-04-01T01:56:51;99469.81;;;9.99;97.18
43745;BME280;29359;53.048;8.732;2023-04-01T01:59:08;99472.44;;;9.99;97.30
43745;BME280;29359;53.048;8.732;2023-04-01T02:01:24;99472.44;;;9.99;97.67
43745;BME280;29359;53.048;8.732;2023-04-01T02:03:30;99473.38;;;9.98;97.80
43745;BME280;29359;53.048;8.732;2023-04-01T02:05:32;99478.66;;;9.98;97.93
43745;BME280;29359;53.048;8.732;2023-04-01T02:07:35;99481.28;;;9.98;97.66
43745;BME280;29359;53.048;8.732;2023-04-01T02:09:39;99476.88;;;9.98;97.86
43745;BME280;29359;53.048;8.732;2023-04-01T02:11:51;99476.78;;;10.00;98.04
43745;BME280;29359;53.048;8.732;2023-04-01T02:14:15;99478.66;;;9.98;97.32
43745;BME280;29359;53.048;8.732;2023-04-01T02:16:29;99479.44;;;10.00;97.22
43745;BME280;29359;53.048;8.732;2023-04-01T02:18:35;99479.50;;;9.98;97.91
43745;BME280;29359;53.048;8.732;2023-04-01T02:20:39;99474.28;;;9.97;97.62
43745;BME280;29359;53.048;8.732;2023-04-01T02:22:45;99487.44;;;9.97;97.34
43745;BME280;29359;53.048;8.732;2023-04-01T02:24:50;99483.09;;;9.96;97.16
43745;BME280;29359;53.048;8.732;2023-04-01T02:26:53;99484.88;;;9.95;96.87
43745;BME280;29359;53.048;8.732;2023-04-01T02:28:55;99482.25;;;9.95;97.15
43745;BME280;29359;53.048;8.732;2023-04-01T02:30:59;99484.97;;;9.94;97.76
43745;BME280;29359;53.048;8.732;2023-04-01T02:33:02;99488.38;;;9.96;96.93
43745;BME280;29359;53.048;8.732;2023-04-01T02:35:13;99487.53;;;9.95;97.39
43745;BME280;29359;53.048;8.732;2023-04-01T02:37:15;99495.44;;;9.95;97.51
43745;BME280;29359;53.048;8.732;2023-04-01T02:39:17;99494.50;;;9.96;97.67
43745;BME280;29359;53.048;8.732;2023-04-01T02:41:18;99487.53;;;9.95;97.27
43745;BME280;29359;53.048;8.732;2023-04-01T02:43:20;99491.09;;;9.94;97.78
43745;BME280;29359;53.048;8.732;2023-04-01T02:45:22;99486.66;;;9.95;97.19
43745;BME280;29359;53.048;8.732;2023-04-01T02:47:24;99495.50;;;9.94;97.69
43745;BME280;29359;53.048;8.732;2023-04-01T02:49:25;99492.00;;;9.93;97.30
43745;BME280;29359;53.048;8.732;2023-04-01T02:51:27;99500.78;;;9.94;97.60
43745;BME280;29359;53.048;8.732;2023-04-01T02:53:28;99497.28;;;9.93;97.63
43745;BME280;29359;53.048;8.732;2023-04-01T02:55:30;99499.06;;;9.93;97.36
43745;BME280;29359;53.048;8.732;2023-04-01T02:57:32;99499.91;;;9.93;97.47
43745;BME280;29359;53.048;8.732;2023-04-01T02:59:34;99498.28;;;9.91;97.45
43745;BME280;29359;53.048;8.732;2023-04-01T03:01:36;99503.56;;;9.91;98.03
43745;BME280;29359;53.048;8.732;2023-04-01T03:03:38;99507.91;;;9.92;96.94
43745;BME280;29359;53.048;8.732;2023-04-01T03:05:40;99511.47;;;9.91;96.73
43745;BME280;29359;53.048;8.732;2023-04-01T03:07:43;99509.69;;;9.91;96.74
43745;BME280;29359;53.048;8.732;2023-04-01T03:09:44;99506.19;;;9.91;96.85
43745;BME280;29359;53.048;8.732;2023-04-01T03:11:46;99510.63;;;9.90;97.20
43745;BME280;29359;53.048;8.732;2023-04-01T03:13:47;99512.41;;;9.90;97.28
43745;BME280;29359;53.048;8.732;2023-04-01T03:15:50;99512.41;;;9.90;96.96
43745;BME280;29359;53.048;8.732;2023-04-01T03:17:51;99508.91;;;9.89;96.89
43745;BME280;29359;53.048;8.732;2023-04-01T03:19:53;99508.91;;;9.89;96.76
43745;BME280;29359;53.048;8.732;2023-04-01T03:21:54;99511.59;;;9.88;96.56
43745;BME280;29359;53.048;8.732;2023-04-01T03:23:56;99508.97;;;9.88;96.03
43745;BME280;29359;53.048;8.732;2023-04-01T03:25:58;99507.25;;;9.87;96.08
43745;BME280;29359;53.048;8.732;2023-04-01T03:27:59;99509.91;;;9.87;96.16
43745;BME280;29359;53.048;8.732;2023-04-01T03:30:04;99515.16;;;9.87;95.81
43745;BME280;29359;53.048;8.732;2023-04-01T03:32:07;99515.25;;;9.85;95.87
43745;BME280;29359;53.048;8.732;2023-04-01T03:34:08;99511.75;;;9.85;96.16
43745;BME280;29359;53.048;8.732;2023-04-01T03:36:10;99516.25;;;9.83;95.73
43745;BME280;29359;53.048;8.732;2023-04-01T03:38:15;99524.16;;;9.83;96.38
43745;BME280;29359;53.048;8.732;2023-04-01T03:40:17;99516.25;;;9.83;96.28
43745;BME280;29359;53.048;8.732;2023-04-01T03:42:18;99522.44;;;9.82;96.03
43745;BME280;29359;53.048;8.732;2023-04-01T03:44:20;99515.47;;;9.81;95.36
43745;BME280;29359;53.048;8.732;2023-04-01T03:46:21;99519.88;;;9.80;96.09
43745;BME280;29359;53.048;8.732;2023-04-01T03:48:24;99521.66;;;9.80;96.23
43745;BME280;29359;53.048;8.732;2023-04-01T03:50:26;99520.81;;;9.79;96.13
43745;BME280;29359;53.048;8.732;2023-04-01T03:52:29;99525.22;;;9.79;96.10
43745;BME280;29359;53.048;8.732;2023-04-01T03:54:31;99528.78;;;9.77;95.61
43745;BME280;29359;53.048;8.732;2023-04-01T03:56:33;99534.97;;;9.76;95.62
43745;BME280;29359;53.048;8.732;2023-04-01T03:58:35;99528.84;;;9.76;95.73
43745;BME280;29359;53.048;8.732;2023-04-01T04:00:37;99528.00;;;9.75;95.75
43745;BME280;29359;53.048;8.732;2023-04-01T04:02:38;99528.00;;;9.75;95.95
43745;BME280;29359;53.048;8.732;2023-04-01T04:04:40;99536.75;;;9.76;95.51
43745;BME280;29359;53.048;8.732;2023-04-01T04:06:42;99534.19;;;9.74;95.54
43745;BME280;29359;53.048;8.732;2023-04-01T04:08:44;99535.13;;;9.73;95.18
43745;BME280;29359;53.048;8.732;2023-04-01T04:10:45;99535.97;;;9.74;94.77
43745;BME280;29359;53.048;8.732;2023-04-01T04:12:49;99539.53;;;9.73;95.03
43745;BME280;29359;53.048;8.732;2023-04-01T04:14:50;99532.56;;;9.72;95.10
43745;BME280;29359;53.048;8.732;2023-04-01T04:16:52;99539.59;;;9.71;95.59
43745;BME280;29359;53.048;8.732;2023-04-01T04:18:54;99539.59;;;9.71;95.65
43745;BME280;29359;53.048;8.732;2023-04-01T04:20:55;99536.13;;;9.71;96.07
43745;BME280;29359;53.048;8.732;2023-04-01T04:22:57;99541.38;;;9.71;95.35
43745;BME280;29359;53.048;8.732;2023-04-01T04:24:58;99546.66;;;9.71;95.72
43745;BME280;29359;53.048;8.732;2023-04-01T04:27:00;99537.91;;;9.70;95.20
43745;BME280;29359;53.048;8.732;2023-04-01T04:29:02;99544.94;;;9.70;94.70
43745;BME280;29359;53.048;8.732;2023-04-01T04:31:04;99551.06;;;9.70;94.75
43745;BME280;29359;53.048;8.732;2023-04-01T04:33:08;99552.91;;;9.68;94.40
43745;BME280;29359;53.048;8.732;2023-04-01T04:35:10;99546.72;;;9.69;94.09
43745;BME280;29359;53.048;8.732;2023-04-01T04:37:12;99559.91;;;9.69;94.57
43745;BME280;29359;53.048;8.732;2023-04-01T04:39:13;99558.13;;;9.70;94.51
43745;BME280;29359;53.048;8.732;2023-04-01T04:41:17;99559.03;;;9.69;94.07
43745;BME280;29359;53.048;8.732;2023-04-01T04:43:19;99563.47;;;9.68;94.06
43745;BME280;29359;53.048;8.732;2023-04-01T04:45:21;99562.59;;;9.68;93.99
43745;BME280;29359;53.048;8.732;2023-04-01T04:47:22;99560.91;;;9.67;93.92
43745;BME280;29359;53.048;8.732;2023-04-01T04:49:24;99559.19;;;9.66;94.46
43745;BME280;29359;53.048;8.732;2023-04-01T04:51:25;99560.97;;;9.65;93.88
43745;BME280;29359;53.048;8.732;2023-04-01T04:53:27;99563.59;;;9.65;94.89
43745;BME280;29359;53.048;8.732;2023-04-01T04:55:29;99571.50;;;9.65;95.11
43745;BME280;29359;53.048;8.732;2023-04-01T04:57:30;99574.13;;;9.65;95.15
43745;BME280;29359;53.048;8.732;2023-04-01T04:59:32;99568.00;;;9.65;95.33
43745;BME280;29359;53.048;8.732;2023-04-01T05:01:33;99576.84;;;9.64;95.64
43745;BME280;29359;53.048;8.732;2023-04-01T05:03:35;99576.00;;;9.63;95.60
43745;BME280;29359;53.048;8.732;2023-04-01T05:05:37;99575.91;;;9.65;94.99
43745;BME280;29359;53.048;8.732;2023-04-01T05:07:39;99575.91;;;9.65;94.82
43745;BME280;29359;53.048;8.732;2023-04-01T05:09:40;99573.28;;;9.65;95.53
43745;BME280;29359;53.048;8.732;2023-04-01T05:11:42;99582.97;;;9.64;94.84
43745;BME280;29359;53.048;8.732;2023-04-01T05:13:44;99589.94;;;9.65;95.53
43745;BME280;29359;53.048;8.732;2023-04-01T05:15:46;99579.41;;;9.65;95.12
43745;BME280;29359;53.048;8.732;2023-04-01T05:17:47;99584.69;;;9.65;95.98
43745;BME280;29359;53.048;8.732;2023-04-01T05:19:49;99589.88;;;9.67;96.27
43745;BME280;29359;53.048;8.732;2023-04-01T05:21:50;99588.09;;;9.67;95.83
43745;BME280;29359;53.048;8.732;2023-04-01T05:23:54;99586.38;;;9.66;96.20
43745;BME280;29359;53.048;8.732;2023-04-01T05:25:55;99585.47;;;9.67;96.32
43745;BME280;29359;53.048;8.732;2023-04-01T05:27:58;99586.38;;;9.66;95.42
43745;BME280;29359;53.048;8.732;2023-04-01T05:29:59;99592.53;;;9.67;95.05
43745;BME280;29359;53.048;8.732;2023-04-01T05:32:01;99586.38;;;9.66;94.49
43745;BME280;29359;53.048;8.732;2023-04-01T05:34:02;99591.66;;;9.66;94.40
43745;BME280;29359;53.048;8.732;2023-04-01T05:36:12;99589.03;;;9.66;94.18
43745;BME280;29359;53.048;8.732;2023-04-01T05:38:14;99601.28;;;9.67;94.16
43745;BME280;29359;53.048;8.732;2023-04-01T05:40:15;99596.00;;;9.67;93.57
43745;BME280;29359;53.048;8.732;2023-04-01T05:42:17;99601.28;;;9.67;93.56
43745;BME280;29359;53.048;8.732;2023-04-01T05:44:18;99599.50;;;9.68;92.87
43745;BME280;29359;53.048;8.732;2023-04-01T05:46:20;99603.78;;;9.70;93.33
43745;BME280;29359;53.048;8.732;2023-04-01T05:48:22;99606.41;;;9.70;92.57
43745;BME280;29359;53.048;8.732;2023-04-01T05:50:23;99603.72;;;9.72;92.61
43745;BME280;29359;53.048;8.732;2023-04-01T05:52:25;99606.34;;;9.72;92.94
43745;BME280;29359;53.048;8.732;2023-04-01T05:54:26;99612.47;;;9.72;92.72
43745;BME280;29359;53.048;8.732;2023-04-01T05:56:28;99608.06;;;9.73;93.42
43745;BME280;29359;53.048;8.732;2023-04-01T05:58:29;99614.97;;;9.75;93.47
43745;BME280;29359;53.048;8.732;2023-04-01T06:00:31;99612.34;;;9.75;92.78
43745;BME280;29359;53.048;8.732;2023-04-01T06:02:32;99614.91;;;9.77;92.08
43745;BME280;29359;53.048;8.732;2023-04-01T06:04:38;99624.53;;;9.78;92.36
43745;BME280;29359;53.048;8.732;2023-04-01T06:06:40;99618.38;;;9.77;92.49
43745;BME280;29359;53.048;8.732;2023-04-01T06:08:42;99628.88;;;9.79;92.49
43745;BME280;29359;53.048;8.732;2023-04-01T06:13:13;99624.31;;;9.83;92.51
43745;BME280;29359;53.048;8.732;2023-04-01T06:20:21;99638.34;;;9.83;92.66
43745;BME280;29359;53.048;8.732;2023-04-01T06:35:04;99650.41;;;9.89;92.23
43745;BME280;29359;53.048;8.732;2023-04-01T06:37:28;99649.53;;;9.88;92.12
43745;BME280;29359;53.048;8.732;2023-04-01T06:47:17;99656.59;;;9.88;90.83
43745;BME280;29359;53.048;8.732;2023-04-01T06:52:08;99662.44;;;9.94;91.66
43745;BME280;29359;53.048;8.732;2023-04-01T06:54:20;99663.19;;;9.98;91.44
43745;BME280;29359;53.048;8.732;2023-04-01T06:56:25;99662.22;;;10.00;92.16
43745;BME280;29359;53.048;8.732;2023-04-01T06:58:35;99666.41;;;10.04;92.65
43745;BME280;29359;53.048;8.732;2023-04-01T07:00:41;99671.69;;;10.04;91.43
43745;BME280;29359;53.048;8.732;2023-04-01T07:02:50;99682.16;;;10.06;91.49
43745;BME280;29359;53.048;8.732;2023-04-01T07:04:58;99673.41;;;10.05;91.26
43745;BME280;29359;53.048;8.732;2023-04-01T07:07:03;99679.47;;;10.07;90.60
43745;BME280;29359;53.048;8.732;2023-04-01T07:09:12;99679.31;;;10.11;90.69
43745;BME280;29359;53.048;8.732;2023-04-01T07:11:27;99684.53;;;10.12;90.97
43745;BME280;29359;53.048;8.732;2023-04-01T07:13:46;99684.53;;;10.12;90.75
43745;BME280;29359;53.048;8.732;2023-04-01T07:15:57;99688.88;;;10.13;91.11
43745;BME280;29359;53.048;8.732;2023-04-01T07:20:28;99699.44;;;10.13;90.50
43745;BME280;29359;53.048;8.732;2023-04-01T07:24:41;99701.00;;;10.17;90.34
43745;BME280;29359;53.048;8.732;2023-04-01T07:26:45;99702.66;;;10.20;90.34
43745;BME280;29359;53.048;8.732;2023-04-01T07:28:50;99711.31;;;10.23;90.43
43745;BME280;29359;53.048;8.732;2023-04-01T07:33:39;99712.88;;;10.27;90.44
43745;BME280;29359;53.048;8.732;2023-04-01T07:38:00;99709.13;;;10.33;89.82
43745;BME280;29359;53.048;8.732;2023-04-01T07:47:02;99737.22;;;10.34;89.29
43745;BME280;29359;53.048;8.732;2023-04-01T07:49:15;99733.66;;;10.35;89.80
43745;BME280;29359;53.048;8.732;2023-04-01T07:58:09;99742.22;;;10.40;88.52
43745;BME280;29359;53.048;8.732;2023-04-01T08:00:27;99749.09;;;10.44;89.05
43745;BME280;29359;53.048;8.732;2023-04-01T08:08:15;99752.94;;;10.56;87.43
43745;BME280;29359;53.048;8.732;2023-04-01T08:10:50;99754.38;;;10.63;87.27
43745;BME280;29359;53.048;8.732;2023-04-01T08:15:33;99760.09;;;10.73;86.52
43745;BME280;29359;53.048;8.732;2023-04-01T08:19:56;99765.16;;;10.77;86.51
43745;BME280;29359;53.048;8.732;2023-04-01T08:22:10;99765.94;;;10.79;86.24
43745;BME280;29359;53.048;8.732;2023-04-01T08:24:36;99768.50;;;10.81;86.21
43745;BME280;29359;53.048;8.732;2023-04-01T08:26:52;99769.25;;;10.84;86.59
43745;BME280;29359;53.048;8.732;2023-04-01T08:29:12;99777.97;;;10.86;86.40
43745;BME280;29359;53.048;8.732;2023-04-01T08:33:47;99786.53;;;10.91;86.60
43745;BME280;29359;53.048;8.732;2023-04-01T08:35:56;99776.75;;;10.93;86.63
43745;BME280;29359;53.048;8.732;2023-04-01T08:38:00;99788.09;;;10.95;86.66
43745;BME280;29359;53.048;8.732;2023-04-01T08:43:08;99798.38;;;11.01;86.06
43745;BME280;29359;53.048;8.732;2023-04-01T08:45:20;99797.38;;;11.04;85.39
43745;BME280;29359;53.048;8.732;2023-04-01T08:47:48;99792.81;;;11.08;85.64
43745;BME280;29359;53.048;8.732;2023-04-01T09:05:34;99815.28;;;11.54;84.03
43745;BME280;29359;53.048;8.732;2023-04-01T09:10:48;99824.47;;;11.64;84.25
43745;BME280;29359;53.048;8.732;2023-04-01T09:18:11;99831.22;;;11.70;85.14
43745;BME280;29359;53.048;8.732;2023-04-01T09:25:33;99838.56;;;12.01;84.12
43745;BME280;29359;53.048;8.732;2023-04-01T09:30:25;99842.56;;;12.26;83.03
43745;BME280;29359;53.048;8.732;2023-04-01T09:59:24;99867.84;;;13.00;81.25
43745;BME280;29359;53.048;8.732;2023-04-01T10:06:42;99892.84;;;12.78;83.33
43745;BME280;29359;53.048;8.732;2023-04-01T10:08:56;99884.13;;;12.76;83.63
43745;BME280;29359;53.048;8.732;2023-04-01T10:14:10;99882.03;;;12.99;82.87
43745;BME280;29359;53.048;8.732;2023-04-01T10:27:59;99909.38;;;12.99;82.83
43745;BME280;29359;53.048;8.732;2023-04-01T10:40:02;99928.22;;;11.69;89.38
43745;BME280;29359;53.048;8.732;2023-04-01T10:44:44;99938.00;;;11.48;90.72
43745;BME280;29359;53.048;8.732;2023-04-01T10:58:20;99960.28;;;11.04;91.76
43745;BME280;29359;53.048;8.732;2023-04-01T11:03:21;99968.59;;;10.94;92.51
43745;BME280;29359;53.048;8.732;2023-04-01T11:05:58;99965.69;;;11.00;92.07
43745;BME280;29359;53.048;8.732;2023-04-01T11:15:34;99990.84;;;11.09;90.81
43745;BME280;29359;53.048;8.732;2023-04-01T11:38:22;100027.78;;;10.68;91.48
43745;BME280;29359;53.048;8.732;2023-04-01T11:42:49;100042.16;;;10.61;91.33
43745;BME280;29359;53.048;8.732;2023-04-01T11:59:44;100069.56;;;10.79;90.05
43745;BME280;29359;53.048;8.732;2023-04-01T12:07:06;100082.44;;;10.88;89.09
43745;BME280;29359;53.048;8.732;2023-04-01T12:11:41;100080.19;;;10.78;89.57
43745;BME280;29359;53.048;8.732;2023-04-01T12:13:55;100094.31;;;10.77;89.58
43745;BME280;29359;53.048;8.732;2023-04-01T12:16:10;100085.47;;;10.78;89.99
43745;BME280;29359;53.048;8.732;2023-04-01T12:18:34;100087.84;;;10.85;89.38
43745;BME280;29359;53.048;8.732;2023-04-01T12:20:57;100092.13;;;10.88;89.16
43745;BME280;29359;53.048;8.732;2023-04-01T12:25:26;100093.13;;;10.85;88.98
43745;BME280;29359;53.048;8.732;2023-04-01T12:27:41;100109.31;;;10.76;89.29
43745;BME280;29359;53.048;8.732;2023-04-01T12:35:16;100127.34;;;10.65;89.81
43745;BME280;29359;53.048;8.732;2023-04-01T12:42:22;100141.53;;;10.41;91.24
43745;BME280;29359;53.048;8.732;2023-04-01T12:44:39;100142.59;;;10.35;91.11
43745;BME280;29359;53.048;8.732;2023-04-01T12:55:41;100160.13;;;10.36;90.37
43745;BME280;29359;53.048;8.732;2023-04-01T13:01:25;100175.41;;;10.28;90.77
43745;BME280;29359;53.048;8.732;2023-04-01T13:08:28;100181.84;;;10.19;90.81
43745;BME280;29359;53.048;8.732;2023-04-01T13:15:26;100195.03;;;10.21;90.81
43745;BME280;29359;53.048;8.732;2023-04-01T13:18:21;100196.06;;;10.15;90.48
43745;BME280;29359;53.048;8.732;2023-04-01T13:20:27;100197.00;;;10.14;90.74
43745;BME280;29359;53.048;8.732;2023-04-01T13:27:21;100226.34;;;10.05;90.63
43745;BME280;29359;53.048;8.732;2023-04-01T13:29:36;100225.59;;;10.01;90.25
43745;BME280;29359;53.048;8.732;2023-04-01T13:31:47;100226.56;;;9.99;91.02
43745;BME280;29359;53.048;8.732;2023-04-01T13:34:17;100239.88;;;9.94;91.08
43745;BME280;29359;53.048;8.732;2023-04-01T13:40:49;100241.00;;;9.87;90.90
43745;BME280;29359;53.048;8.732;2023-04-01T13:43:19;100248.16;;;9.84;91.06
43745;BME280;29359;53.048;8.732;2023-04-01T13:45:24;100249.88;;;9.85;91.40
43745;BME280;29359;53.048;8.732;2023-04-01T14:03:44;100278.03;;;9.58;91.38
43745;BME280;29359;53.048;8.732;2023-04-01T14:06:00;100284.28;;;9.55;91.18
43745;BME280;29359;53.048;8.732;2023-04-01T14:10:45;100289.66;;;9.51;91.26
43745;BME280;29359;53.048;8.732;2023-04-01T14:18:45;100299.84;;;9.35;91.49
43745;BME280;29359;53.048;8.732;2023-04-01T14:30:41;100320.59;;;9.18;91.70
43745;BME280;29359;53.048;8.732;2023-04-01T14:35:27;100339.13;;;9.15;91.55
43745;BME280;29359;53.048;8.732;2023-04-01T14:38:12;100337.56;;;9.07;92.11
43745;BME280;29359;53.048;8.732;2023-04-01T14:40:28;100348.16;;;9.04;91.67
43745;BME280;29359;53.048;8.732;2023-04-01T14:51:39;100361.06;;;8.84;92.60
43745;BME280;29359;53.048;8.732;2023-04-01T14:54:06;100361.97;;;8.83;92.16
43745;BME280;29359;53.048;8.732;2023-04-01T14:56:10;100371.69;;;8.81;92.11
43745;BME280;29359;53.048;8.732;2023-04-01T14:58:17;100381.44;;;8.77;92.13
43745;BME280;29359;53.048;8.732;2023-04-01T15:00:19;100377.16;;;8.73;92.49
43745;BME280;29359;53.048;8.732;2023-04-01T15:02:45;100383.34;;;8.72;92.05
43745;BME280;29359;53.048;8.732;2023-04-01T15:07:06;100388.88;;;8.62;92.32
43745;BME280;29359;53.048;8.732;2023-04-01T15:20:36;100412.06;;;8.47;92.22
43745;BME280;29359;53.048;8.732;2023-04-01T15:23:25;100423.53;;;8.45;92.18
43745;BME280;29359;53.048;8.732;2023-04-01T15:25:31;100427.88;;;8.46;92.58
43745;BME280;29359;53.048;8.732;2023-04-01T15:27:42;100434.94;;;8.44;92.95
43745;BME280;29359;53.048;8.732;2023-04-01T15:30:14;100446.34;;;8.44;92.21
43745;BME280;29359;53.048;8.732;2023-04-01T15:32:43;100454.34;;;8.40;92.31
43745;BME280;29359;53.048;8.732;2023-04-01T15:37:38;100449.22;;;8.35;92.58
43745;BME280;29359;53.048;8.732;2023-04-01T15:46:44;100478.50;;;8.18;92.59
43745;BME280;29359;53.048;8.732;2023-04-01T15:56:18;100501.59;;;8.06;93.53
43745;BME280;29359;53.048;8.732;2023-04-01T16:09:51;100522.94;;;7.92;92.92
43745;BME280;29359;53.048;8.732;2023-04-01T16:12:42;100529.16;;;7.88;93.17
43745;BME280;29359;53.048;8.732;2023-04-01T16:14:59;100538.94;;;7.81;92.98
43745;BME280;29359;53.048;8.732;2023-04-01T16:19:24;100545.16;;;7.76;93.54
43745;BME280;29359;53.048;8.732;2023-04-01T16:21:48;100543.59;;;7.67;93.72
43745;BME280;29359;53.048;8.732;2023-04-01T16:24:02;100564.69;;;7.64;93.61
43745;BME280;29359;53.048;8.732;2023-04-01T16:26:24;100565.63;;;7.62;93.52
43745;BME280;29359;53.048;8.732;2023-04-01T16:28:31;100560.47;;;7.57;94.21
43745;BME280;29359;53.048;8.732;2023-04-01T16:33:05;100565.81;;;7.52;94.30
43745;BME280;29359;53.048;8.732;2023-04-01T16:40:24;100580.81;;;7.46;94.01
43745;BME280;29359;53.048;8.732;2023-04-01T16:42:49;100582.66;;;7.42;93.83
43745;BME280;29359;53.048;8.732;2023-04-01T16:44:59;100595.00;;;7.36;94.36
43745;BME280;29359;53.048;8.732;2023-04-01T16:47:09;100602.88;;;7.37;93.90
43745;BME280;29359;53.048;8.732;2023-04-01T16:49:23;100607.25;;;7.35;93.96
43745;BME280;29359;53.048;8.732;2023-04-01T16:51:34;100608.16;;;7.34;94.16
43745;BME280;29359;53.048;8.732;2023-04-01T16:54:02;100612.59;;;7.31;94.26
43745;BME280;29359;53.048;8.732;2023-04-01T16:56:16;100623.16;;;7.28;94.06
43745;BME280;29359;53.048;8.732;2023-04-01T16:58:27;100626.69;;;7.27;94.08
43745;BME280;29359;53.048;8.732;2023-04-01T17:00:41;100626.75;;;7.22;93.89
43745;BME280;29359;53.048;8.732;2023-04-01T17:05:12;100638.31;;;7.12;93.79
43745;BME280;29359;53.048;8.732;2023-04-01T17:12:17;100650.84;;;6.96;94.68
43745;BME280;29359;53.048;8.732;2023-04-01T17:14:45;100664.84;;;6.97;94.41
43745;BME280;29359;53.048;8.732;2023-04-01T17:16:52;100667.50;;;6.95;94.83
43745;BME280;29359;53.048;8.732;2023-04-01T17:28:14;100706.94;;;6.87;93.98
43745;BME280;29359;53.048;8.732;2023-04-01T17:30:27;100711.38;;;6.84;93.96
43745;BME280;29359;53.048;8.732;2023-04-01T17:35:20;100717.66;;;6.72;94.31
43745;BME280;29359;53.048;8.732;2023-04-01T17:37:51;100729.13;;;6.67;94.50
43745;BME280;29359;53.048;8.732;2023-04-01T17:40:26;100732.66;;;6.64;94.51
43745;BME280;29359;53.048;8.732;2023-04-01T17:49:49;100755.53;;;6.54;94.13
43745;BME280;29359;53.048;8.732;2023-04-01T17:52:12;100756.38;;;6.55;94.47
43745;BME280;29359;53.048;8.732;2023-04-01T17:54:36;100767.75;;;6.55;94.47
43745;BME280;29359;53.048;8.732;2023-04-01T17:56:55;100772.09;;;6.58;94.21
43745;BME280;29359;53.048;8.732;2023-04-01T18:01:30;100777.41;;;6.52;93.75
43745;BME280;29359;53.048;8.732;2023-04-01T18:03:53;100791.44;;;6.46;94.08
43745;BME280;29359;53.048;8.732;2023-04-01T18:06:03;100789.69;;;6.45;93.70
43745;BME280;29359;53.048;8.732;2023-04-01T18:10:41;100795.88;;;6.41;93.72
43745;BME280;29359;53.048;8.732;2023-04-01T18:13:09;100806.34;;;6.41;93.63
43745;BME280;29359;53.048;8.732;2023-04-01T18:15:21;100808.13;;;6.39;94.00